Here is the Quick Look data you requested

The Data originates at the National Weather Service, and is made available here by the UAlbany Department of Atmospheric and Environmental Sciences

Surface Observations

KAFN 250152Z AUTO 00000KT 10SM CLR 12/06 A3018 RMK AO2 SLP226 T01170061=
KASH 250156Z AUTO 14004KT 10SM CLR 15/03 A3019 RMK AO2 SLP233 T01500033=
KBML 250152Z AUTO 00000KT 10SM CLR 03/M01 A3025 RMK AO2 SLP253 T00281011=
KCON 250151Z AUTO 07003KT 10SM CLR 13/04 A3019 RMK AO2 SLP225 T01330039=
KCWN 250158Z AUTO 00000KT 10SM BKN085 BKN180 14/M05 A2958 RMK AO2 SLPNO
 T01431052=
KDAW 250151Z AUTO 05004KT 10SM CLR 08/04 A3022 RMK AO2 SLP230 T00830044=
KEEN 250156Z AUTO 00000KT 10SM CLR 13/04 A3017 RMK AO2 SLP239 T01330044=
KHIE 250152Z AUTO 00000KT 10SM CLR 04/01 A3023 RMK AO2 SLP244 T00440006=
KLCI 250156Z AUTO 07007KT 10SM CLR 12/03 A3022 RMK AO2 SLP252 T01170028=
KLEB 250153Z 02005KT 10SM CLR 13/04 A3019 RMK AO2 SLP221 T01330039=
KMHT 250153Z 08007KT 10SM BKN250 15/04 A3018 RMK AO2 SLP231 T01500044=
KMWN 250154Z 22008KT 100SM FEW140 SCT160 BKN180 02/M01 RMK=
KPSM 250158Z 06007KT 10SM BKN250 08/07 A3021 RMK AO2A SLP234 T00830066=